sensor_id;sensor_type;location;lat;lon;timestamp;pressure;altitude;pressure_sealevel;temperature;humidity
75668;BME280;64266;48.798;44.756;2022-12-18T00:01:03;102366.75;;;3.94;79.01
75668;BME280;64266;48.798;44.756;2022-12-18T00:03:33;102352.38;;;3.98;77.68
75668;BME280;64266;48.798;44.756;2022-12-18T00:05:59;102330.13;;;3.92;77.60
75668;BME280;64266;48.798;44.756;2022-12-18T00:08:25;102306.41;;;3.94;77.09
75668;BME280;64266;48.798;44.756;2022-12-18T00:10:51;102317.97;;;3.91;77.63
75668;BME280;64266;48.798;44.756;2022-12-18T00:13:18;102299.09;;;3.57;76.98
75668;BME280;64266;48.798;44.756;2022-12-18T00:15:43;102336.56;;;3.78;78.18
75668;BME280;64266;48.798;44.756;2022-12-18T00:18:10;102352.91;;;3.92;77.75
75668;BME280;64266;48.798;44.756;2022-12-18T00:20:37;102290.16;;;3.60;78.14
75668;BME280;64266;48.798;44.756;2022-12-18T00:23:04;102340.34;;;3.86;77.39
75668;BME280;64266;48.798;44.756;2022-12-18T00:25:33;102302.88;;;3.64;78.86
75668;BME280;64266;48.798;44.756;2022-12-18T00:28:00;102335.81;;;3.88;78.90
75668;BME280;64266;48.798;44.756;2022-12-18T00:30:26;102314.53;;;3.91;77.67
75668;BME280;64266;48.798;44.756;2022-12-18T00:32:52;102338.84;;;4.02;77.48
75668;BME280;64266;48.798;44.756;2022-12-18T00:35:18;102321.00;;;3.77;77.17
75668;BME280;64266;48.798;44.756;2022-12-18T00:37:45;102297.34;;;3.67;78.16
75668;BME280;64266;48.798;44.756;2022-12-18T00:40:11;102328.16;;;3.84;78.50
75668;BME280;64266;48.798;44.756;2022-12-18T00:42:39;102326.66;;;3.82;78.01
75668;BME280;64266;48.798;44.756;2022-12-18T00:45:30;102328.31;;;3.83;78.09
75668;BME280;64266;48.798;44.756;2022-12-18T00:47:56;102324.19;;;3.90;78.76
75668;BME280;64266;48.798;44.756;2022-12-18T00:50:24;102282.19;;;3.71;77.83
75668;BME280;64266;48.798;44.756;2022-12-18T00:52:50;102310.38;;;3.88;79.17
75668;BME280;64266;48.798;44.756;2022-12-18T00:55:17;102315.63;;;3.98;78.05
75668;BME280;64266;48.798;44.756;2022-12-18T00:57:46;102293.38;;;3.82;77.51
75668;BME280;64266;48.798;44.756;2022-12-18T01:00:13;102315.63;;;3.98;78.05
75668;BME280;64266;48.798;44.756;2022-12-18T01:02:41;102294.63;;;3.88;77.82
75668;BME280;64266;48.798;44.756;2022-12-18T01:05:08;102287.47;;;3.90;77.62
75668;BME280;64266;48.798;44.756;2022-12-18T01:07:33;102292.25;;;3.85;77.57
75668;BME280;64266;48.798;44.756;2022-12-18T01:10:02;102302.09;;;3.93;77.98
75668;BME280;64266;48.798;44.756;2022-12-18T01:12:29;102289.38;;;3.98;78.52
75668;BME280;64266;48.798;44.756;2022-12-18T01:14:55;102286.50;;;4.01;78.09
75668;BME280;64266;48.798;44.756;2022-12-18T01:17:21;102290.50;;;3.95;77.52
75668;BME280;64266;48.798;44.756;2022-12-18T01:19:48;102285.41;;;3.94;78.97
75668;BME280;64266;48.798;44.756;2022-12-18T01:22:14;102261.47;;;3.77;77.19
75668;BME280;64266;48.798;44.756;2022-12-18T01:24:40;102299.50;;;4.02;77.78
75668;BME280;64266;48.798;44.756;2022-12-18T01:27:05;102291.88;;;3.99;77.33
75668;BME280;64266;48.798;44.756;2022-12-18T01:29:32;102238.97;;;3.75;77.27
75668;BME280;64266;48.798;44.756;2022-12-18T01:31:58;102244.75;;;3.78;77.44
75668;BME280;64266;48.798;44.756;2022-12-18T01:34:25;102232.72;;;3.66;77.48
75668;BME280;64266;48.798;44.756;2022-12-18T01:36:51;102276.69;;;3.83;77.59
75668;BME280;64266;48.798;44.756;2022-12-18T01:39:18;102283.59;;;4.04;78.08
75668;BME280;64266;48.798;44.756;2022-12-18T01:41:45;102311.38;;;4.16;77.46
75668;BME280;64266;48.798;44.756;2022-12-18T01:50:03;102263.56;;;3.93;77.90
75668;BME280;64266;48.798;44.756;2022-12-18T01:52:31;102292.44;;;4.22;77.54
75668;BME280;64266;48.798;44.756;2022-12-18T01:55:00;102295.06;;;4.31;79.12
75668;BME280;64266;48.798;44.756;2022-12-18T01:57:29;102228.22;;;3.88;76.55
75668;BME280;64266;48.798;44.756;2022-12-18T01:59:59;102287.19;;;4.22;76.75
75668;BME280;64266;48.798;44.756;2022-12-18T02:02:27;102280.28;;;4.21;77.09
75668;BME280;64266;48.798;44.756;2022-12-18T02:04:54;102233.47;;;3.88;76.88
75668;BME280;64266;48.798;44.756;2022-12-18T02:10:29;102304.19;;;4.27;77.71
75668;BME280;64266;48.798;44.756;2022-12-18T02:16:21;102298.13;;;4.27;77.52
75668;BME280;64266;48.798;44.756;2022-12-18T02:18:56;102282.09;;;4.20;76.96
75668;BME280;64266;48.798;44.756;2022-12-18T02:21:56;102276.97;;;4.19;76.70
75668;BME280;64266;48.798;44.756;2022-12-18T02:24:39;102294.38;;;4.10;76.50
75668;BME280;64266;48.798;44.756;2022-12-18T02:27:09;102286.66;;;4.09;77.05
75668;BME280;64266;48.798;44.756;2022-12-18T02:29:57;102281.69;;;4.06;77.24
75668;BME280;64266;48.798;44.756;2022-12-18T02:32:34;102274.19;;;3.92;77.61
75668;BME280;64266;48.798;44.756;2022-12-18T02:35:01;102289.53;;;4.15;78.40
75668;BME280;64266;48.798;44.756;2022-12-18T02:37:30;102268.00;;;4.02;77.97
75668;BME280;64266;48.798;44.756;2022-12-18T02:40:01;102292.97;;;4.16;78.16
75668;BME280;64266;48.798;44.756;2022-12-18T02:42:32;102264.53;;;3.92;77.25
75668;BME280;64266;48.798;44.756;2022-12-18T02:45:03;102292.97;;;4.06;77.53
75668;BME280;64266;48.798;44.756;2022-12-18T02:47:39;102281.25;;;4.01;78.03
75668;BME280;64266;48.798;44.756;2022-12-18T02:55:59;102295.63;;;4.25;76.44
75668;BME280;64266;48.798;44.756;2022-12-18T03:01:58;102263.28;;;4.15;77.79
75668;BME280;64266;48.798;44.756;2022-12-18T03:06:57;102281.94;;;4.22;77.65
75668;BME280;64266;48.798;44.756;2022-12-18T03:09:31;102270.47;;;4.13;76.74
75668;BME280;64266;48.798;44.756;2022-12-18T03:12:04;102269.50;;;4.14;76.49
75668;BME280;64266;48.798;44.756;2022-12-18T03:15:25;102224.75;;;3.97;77.49
75668;BME280;64266;48.798;44.756;2022-12-18T03:18:08;102257.78;;;4.09;75.98
75668;BME280;64266;48.798;44.756;2022-12-18T03:20:39;102273.78;;;4.15;77.34
75668;BME280;64266;48.798;44.756;2022-12-18T03:23:09;102254.88;;;4.12;76.46
75668;BME280;64266;48.798;44.756;2022-12-18T03:25:40;102243.38;;;4.03;77.36
75668;BME280;64266;48.798;44.756;2022-12-18T03:28:12;102261.19;;;4.19;77.20
75668;BME280;64266;48.798;44.756;2022-12-18T03:30:40;102238.00;;;4.05;77.34
75668;BME280;64266;48.798;44.756;2022-12-18T03:33:19;102244.78;;;4.17;77.30
75668;BME280;64266;48.798;44.756;2022-12-18T03:35:50;102233.03;;;4.11;77.08
75668;BME280;64266;48.798;44.756;2022-12-18T03:38:18;102258.47;;;4.30;77.59
75668;BME280;64266;48.798;44.756;2022-12-18T03:40:52;102264.94;;;4.26;76.30
75668;BME280;64266;48.798;44.756;2022-12-18T03:43:42;102239.81;;;4.04;76.51
75668;BME280;64266;48.798;44.756;2022-12-18T03:46:20;102286.38;;;4.21;77.86
75668;BME280;64266;48.798;44.756;2022-12-18T03:49:12;102259.97;;;4.13;76.84
75668;BME280;64266;48.798;44.756;2022-12-18T03:54:11;102222.81;;;3.89;76.62
75668;BME280;64266;48.798;44.756;2022-12-18T03:56:56;102261.75;;;4.22;76.92
75668;BME280;64266;48.798;44.756;2022-12-18T03:59:25;102267.16;;;4.30;77.88
75668;BME280;64266;48.798;44.756;2022-12-18T04:01:53;102257.34;;;4.23;76.17
75668;BME280;64266;48.798;44.756;2022-12-18T04:04:23;102226.41;;;4.07;76.10
75668;BME280;64266;48.798;44.756;2022-12-18T04:06:52;102222.09;;;4.16;76.01
75668;BME280;64266;48.798;44.756;2022-12-18T04:09:19;102245.44;;;4.19;76.51
75668;BME280;64266;48.798;44.756;2022-12-18T04:11:47;102216.19;;;4.14;77.19
75668;BME280;64266;48.798;44.756;2022-12-18T04:14:15;102255.56;;;4.23;75.85
75668;BME280;64266;48.798;44.756;2022-12-18T04:16:41;102235.22;;;4.16;75.63
75668;BME280;64266;48.798;44.756;2022-12-18T04:19:10;102264.09;;;4.25;75.62
75668;BME280;64266;48.798;44.756;2022-12-18T04:21:39;102226.41;;;3.98;77.18
75668;BME280;64266;48.798;44.756;2022-12-18T04:24:06;102260.94;;;4.22;76.68
75668;BME280;64266;48.798;44.756;2022-12-18T04:26:34;102165.25;;;3.68;76.91
75668;BME280;64266;48.798;44.756;2022-12-18T04:29:26;102235.22;;;4.06;75.81
75668;BME280;64266;48.798;44.756;2022-12-18T04:31:52;102199.88;;;3.81;76.80
75668;BME280;64266;48.798;44.756;2022-12-18T04:34:19;102188.97;;;3.76;76.07
75668;BME280;64266;48.798;44.756;2022-12-18T04:36:49;102228.91;;;3.99;76.56
75668;BME280;64266;48.798;44.756;2022-12-18T04:39:15;102259.00;;;4.24;77.94
75668;BME280;64266;48.798;44.756;2022-12-18T04:41:44;102268.97;;;4.30;76.67
75668;BME280;64266;48.798;44.756;2022-12-18T04:44:12;102255.41;;;4.34;77.42
75668;BME280;64266;48.798;44.756;2022-12-18T04:46:37;102218.94;;;4.12;75.79
75668;BME280;64266;48.798;44.756;2022-12-18T04:49:03;102232.47;;;4.17;75.78
75668;BME280;64266;48.798;44.756;2022-12-18T04:51:29;102205.13;;;3.91;76.55
75668;BME280;64266;48.798;44.756;2022-12-18T04:53:55;102205.66;;;3.75;76.67
75668;BME280;64266;48.798;44.756;2022-12-18T04:56:20;102244.94;;;4.06;77.37
75668;BME280;64266;48.798;44.756;2022-12-18T04:58:46;102195.19;;;3.85;77.52
75668;BME280;64266;48.798;44.756;2022-12-18T05:01:14;102213.28;;;3.98;76.63
75668;BME280;64266;48.798;44.756;2022-12-18T05:03:40;102205.84;;;4.03;76.40
75668;BME280;64266;48.798;44.756;2022-12-18T05:06:06;102231.50;;;4.18;76.59
75668;BME280;64266;48.798;44.756;2022-12-18T05:08:33;102229.59;;;4.11;76.70
75668;BME280;64266;48.798;44.756;2022-12-18T05:11:12;102237.84;;;4.25;76.48
75668;BME280;64266;48.798;44.756;2022-12-18T05:13:39;102234.28;;;4.17;77.03
75668;BME280;64266;48.798;44.756;2022-12-18T05:16:05;102226.84;;;4.03;76.63
75668;BME280;64266;48.798;44.756;2022-12-18T05:18:32;102237.47;;;4.20;75.99
75668;BME280;64266;48.798;44.756;2022-12-18T05:20:58;102266.06;;;4.33;76.54
75668;BME280;64266;48.798;44.756;2022-12-18T05:23:25;102264.25;;;4.33;77.27
75668;BME280;64266;48.798;44.756;2022-12-18T05:26:02;102213.84;;;4.11;76.26
75668;BME280;64266;48.798;44.756;2022-12-18T05:28:31;102242.81;;;4.38;76.38
75668;BME280;64266;48.798;44.756;2022-12-18T05:30:59;102239.91;;;4.41;76.06
75668;BME280;64266;48.798;44.756;2022-12-18T05:33:28;102241.69;;;4.41;75.94
75668;BME280;64266;48.798;44.756;2022-12-18T05:35:57;102207.75;;;4.10;76.25
75668;BME280;64266;48.798;44.756;2022-12-18T05:38:24;102247.66;;;4.33;77.10
75668;BME280;64266;48.798;44.756;2022-12-18T05:40:52;102250.84;;;4.36;76.62
75668;BME280;64266;48.798;44.756;2022-12-18T05:43:25;102262.44;;;4.34;77.01
75668;BME280;64266;48.798;44.756;2022-12-18T05:45:52;102232.88;;;4.13;77.06
75668;BME280;64266;48.798;44.756;2022-12-18T05:48:19;102276.41;;;4.44;77.10
75668;BME280;64266;48.798;44.756;2022-12-18T05:50:46;102276.13;;;4.47;76.47
75668;BME280;64266;48.798;44.756;2022-12-18T05:53:18;102265.19;;;4.52;76.06
75668;BME280;64266;48.798;44.756;2022-12-18T05:55:45;102289.63;;;4.62;77.55
75668;BME280;64266;48.798;44.756;2022-12-18T05:58:12;102236.59;;;4.39;76.62
75668;BME280;64266;48.798;44.756;2022-12-18T06:00:43;102283.00;;;4.67;75.04
75668;BME280;64266;48.798;44.756;2022-12-18T06:03:12;102280.34;;;4.77;75.69
75668;BME280;64266;48.798;44.756;2022-12-18T06:05:41;102289.75;;;4.79;75.07
75668;BME280;64266;48.798;44.756;2022-12-18T06:08:07;102273.84;;;4.71;76.29
75668;BME280;64266;48.798;44.756;2022-12-18T06:10:34;102301.50;;;4.85;75.70
75668;BME280;64266;48.798;44.756;2022-12-18T06:13:00;102288.78;;;4.80;74.73
75668;BME280;64266;48.798;44.756;2022-12-18T06:15:26;102292.38;;;4.89;75.91
75668;BME280;64266;48.798;44.756;2022-12-18T06:17:52;102290.03;;;4.86;75.45
75668;BME280;64266;48.798;44.756;2022-12-18T06:20:18;102296.91;;;4.87;75.20
75668;BME280;64266;48.798;44.756;2022-12-18T06:22:44;102308.66;;;4.92;75.44
75668;BME280;64266;48.798;44.756;2022-12-18T06:25:11;102302.63;;;4.82;75.99
75668;BME280;64266;48.798;44.756;2022-12-18T06:27:37;102299.00;;;4.83;75.96
75668;BME280;64266;48.798;44.756;2022-12-18T06:30:04;102306.47;;;4.88;75.60
75668;BME280;64266;48.798;44.756;2022-12-18T06:32:30;102307.41;;;4.97;76.40
75668;BME280;64266;48.798;44.756;2022-12-18T06:34:56;102277.97;;;4.83;76.08
75668;BME280;64266;48.798;44.756;2022-12-18T06:37:22;102282.66;;;4.89;75.58
75668;BME280;64266;48.798;44.756;2022-12-18T06:39:53;102283.50;;;4.90;75.71
75668;BME280;64266;48.798;44.756;2022-12-18T06:42:19;102294.94;;;4.99;75.49
75668;BME280;64266;48.798;44.756;2022-12-18T06:44:46;102257.53;;;4.77;75.37
75668;BME280;64266;48.798;44.756;2022-12-18T06:47:11;102274.50;;;4.92;74.93
75668;BME280;64266;48.798;44.756;2022-12-18T06:49:37;102261.38;;;4.83;75.82
75668;BME280;64266;48.798;44.756;2022-12-18T06:52:03;102259.28;;;4.86;75.92
75668;BME280;64266;48.798;44.756;2022-12-18T06:54:29;102277.56;;;4.88;76.65
75668;BME280;64266;48.798;44.756;2022-12-18T06:56:55;102261.94;;;4.77;75.61
75668;BME280;64266;48.798;44.756;2022-12-18T06:59:21;102226.84;;;4.68;76.36
75668;BME280;64266;48.798;44.756;2022-12-18T07:01:47;102232.09;;;4.68;76.11
75668;BME280;64266;48.798;44.756;2022-12-18T07:04:13;102264.69;;;4.85;75.80
75668;BME280;64266;48.798;44.756;2022-12-18T07:06:39;102275.19;;;4.95;76.25
75668;BME280;64266;48.798;44.756;2022-12-18T07:09:04;102250.19;;;4.81;75.82
75668;BME280;64266;48.798;44.756;2022-12-18T07:11:32;102224.50;;;4.65;76.09
75668;BME280;64266;48.798;44.756;2022-12-18T07:13:59;102212.75;;;4.69;76.09
75668;BME280;64266;48.798;44.756;2022-12-18T07:16:25;102238.25;;;4.86;76.25
75668;BME280;64266;48.798;44.756;2022-12-18T07:18:52;102226.16;;;4.76;76.63
75668;BME280;64266;48.798;44.756;2022-12-18T07:21:19;102234.00;;;4.85;76.43
75668;BME280;64266;48.798;44.756;2022-12-18T07:23:46;102206.06;;;4.84;77.09
75668;BME280;64266;48.798;44.756;2022-12-18T07:26:14;102181.06;;;4.71;76.58
75668;BME280;64266;48.798;44.756;2022-12-18T07:28:41;102163.16;;;4.84;76.14
75668;BME280;64266;48.798;44.756;2022-12-18T07:31:10;102175.78;;;4.80;76.68
75668;BME280;64266;48.798;44.756;2022-12-18T07:33:37;102171.25;;;4.73;77.08
75668;BME280;64266;48.798;44.756;2022-12-18T07:36:04;102177.66;;;4.98;77.20
75668;BME280;64266;48.798;44.756;2022-12-18T07:38:32;102179.72;;;4.94;76.10
75668;BME280;64266;48.798;44.756;2022-12-18T07:41:03;102203.78;;;4.99;76.00
75668;BME280;64266;48.798;44.756;2022-12-18T07:43:29;102224.09;;;5.07;76.54
75668;BME280;64266;48.798;44.756;2022-12-18T07:45:56;102199.78;;;4.95;76.38
75668;BME280;64266;48.798;44.756;2022-12-18T07:48:22;102206.41;;;4.99;76.83
75668;BME280;64266;48.798;44.756;2022-12-18T07:50:48;102212.94;;;4.95;76.30
75668;BME280;64266;48.798;44.756;2022-12-18T07:53:15;102210.66;;;5.10;77.14
75668;BME280;64266;48.798;44.756;2022-12-18T07:55:41;102190.69;;;5.17;77.01
75668;BME280;64266;48.798;44.756;2022-12-18T07:58:07;102192.63;;;5.15;77.28
75668;BME280;64266;48.798;44.756;2022-12-18T08:00:34;102184.16;;;5.21;76.53
75668;BME280;64266;48.798;44.756;2022-12-18T08:03:00;102186.53;;;5.14;77.25
75668;BME280;64266;48.798;44.756;2022-12-18T08:05:26;102193.19;;;5.36;76.18
75668;BME280;64266;48.798;44.756;2022-12-18T08:07:53;102201.63;;;5.39;75.51
75668;BME280;64266;48.798;44.756;2022-12-18T08:10:19;102187.47;;;5.23;75.77
75668;BME280;64266;48.798;44.756;2022-12-18T08:12:45;102233.34;;;5.38;76.04
75668;BME280;64266;48.798;44.756;2022-12-18T08:15:11;102195.38;;;5.40;75.54
75668;BME280;64266;48.798;44.756;2022-12-18T08:17:36;102152.50;;;5.13;75.97
75668;BME280;64266;48.798;44.756;2022-12-18T08:20:03;102166.06;;;5.35;75.70
75668;BME280;64266;48.798;44.756;2022-12-18T08:22:29;102179.16;;;5.45;75.64
75668;BME280;64266;48.798;44.756;2022-12-18T08:24:54;102171.00;;;5.38;75.23
75668;BME280;64266;48.798;44.756;2022-12-18T08:27:20;102153.06;;;5.34;75.52
75668;BME280;64266;48.798;44.756;2022-12-18T08:29:46;102116.06;;;5.18;75.50
75668;BME280;64266;48.798;44.756;2022-12-18T08:32:12;102177.75;;;5.51;75.28
75668;BME280;64266;48.798;44.756;2022-12-18T08:34:38;102167.06;;;5.52;75.45
75668;BME280;64266;48.798;44.756;2022-12-18T08:37:04;102161.72;;;5.44;76.06
75668;BME280;64266;48.798;44.756;2022-12-18T08:39:30;102183.44;;;5.64;76.60
75668;BME280;64266;48.798;44.756;2022-12-18T08:41:56;102146.38;;;5.57;75.26
75668;BME280;64266;48.798;44.756;2022-12-18T08:44:41;102146.22;;;5.76;74.76
75668;BME280;64266;48.798;44.756;2022-12-18T08:47:07;102136.91;;;5.64;75.25
75668;BME280;64266;48.798;44.756;2022-12-18T08:49:34;102153.06;;;5.69;76.01
75668;BME280;64266;48.798;44.756;2022-12-18T08:52:01;102160.59;;;5.64;74.50
75668;BME280;64266;48.798;44.756;2022-12-18T08:54:29;102157.34;;;5.70;75.94
75668;BME280;64266;48.798;44.756;2022-12-18T08:56:55;102147.50;;;5.72;74.61
75668;BME280;64266;48.798;44.756;2022-12-18T08:59:21;102160.59;;;5.64;75.22
75668;BME280;64266;48.798;44.756;2022-12-18T09:01:47;102141.81;;;5.59;76.35
75668;BME280;64266;48.798;44.756;2022-12-18T09:04:13;102128.88;;;5.48;75.98
75668;BME280;64266;48.798;44.756;2022-12-18T09:06:40;102191.59;;;5.88;76.10
75668;BME280;64266;48.798;44.756;2022-12-18T09:09:06;102163.25;;;5.99;74.99
75668;BME280;64266;48.798;44.756;2022-12-18T09:11:32;102160.38;;;5.93;75.95
75668;BME280;64266;48.798;44.756;2022-12-18T09:14:00;102137.06;;;5.80;76.13
75668;BME280;64266;48.798;44.756;2022-12-18T09:16:27;102144.59;;;5.93;74.98
75668;BME280;64266;48.798;44.756;2022-12-18T09:18:54;102151.25;;;6.05;74.28
75668;BME280;64266;48.798;44.756;2022-12-18T09:21:27;102137.28;;;6.05;74.26
75668;BME280;64266;48.798;44.756;2022-12-18T09:23:55;102143.28;;;5.97;74.31
75668;BME280;64266;48.798;44.756;2022-12-18T09:26:22;102118.31;;;5.83;74.78
75668;BME280;64266;48.798;44.756;2022-12-18T09:28:48;102125.94;;;5.86;75.26
75668;BME280;64266;48.798;44.756;2022-12-18T09:31:14;102111.19;;;5.93;75.12
75668;BME280;64266;48.798;44.756;2022-12-18T09:33:40;102105.63;;;5.96;74.59
75668;BME280;64266;48.798;44.756;2022-12-18T09:36:08;102115.03;;;5.99;74.84
75668;BME280;64266;48.798;44.756;2022-12-18T09:38:35;102095.47;;;5.84;75.59
75668;BME280;64266;48.798;44.756;2022-12-18T09:44:13;102099.53;;;5.96;75.33
75668;BME280;64266;48.798;44.756;2022-12-18T09:46:45;102138.13;;;5.87;75.36
75668;BME280;64266;48.798;44.756;2022-12-18T09:49:16;102101.28;;;5.87;75.03
75668;BME280;64266;48.798;44.756;2022-12-18T09:51:49;102122.22;;;5.97;74.88
75668;BME280;64266;48.798;44.756;2022-12-18T09:54:21;102105.09;;;5.93;75.75
75668;BME280;64266;48.798;44.756;2022-12-18T09:56:48;102105.72;;;5.87;75.59
75668;BME280;64266;48.798;44.756;2022-12-18T09:59:23;102088.41;;;5.84;74.86
75668;BME280;64266;48.798;44.756;2022-12-18T10:01:49;102101.03;;;5.98;76.09
75668;BME280;64266;48.798;44.756;2022-12-18T10:04:15;102092.19;;;6.08;75.52
75668;BME280;64266;48.798;44.756;2022-12-18T10:15:28;102087.34;;;6.21;74.86
75668;BME280;64266;48.798;44.756;2022-12-18T10:18:03;102082.19;;;6.11;74.36
75668;BME280;64266;48.798;44.756;2022-12-18T10:20:40;102102.50;;;6.01;75.45
75668;BME280;64266;48.798;44.756;2022-12-18T10:26:10;102078.38;;;6.06;76.28
75668;BME280;64266;48.798;44.756;2022-12-18T10:28:38;102070.16;;;6.09;75.58
75668;BME280;64266;48.798;44.756;2022-12-18T10:31:15;102065.50;;;6.03;76.05
75668;BME280;64266;48.798;44.756;2022-12-18T10:33:42;102070.41;;;6.23;76.10
75668;BME280;64266;48.798;44.756;2022-12-18T10:36:08;102082.94;;;6.29;75.03
75668;BME280;64266;48.798;44.756;2022-12-18T10:38:34;102052.28;;;6.20;75.08
75668;BME280;64266;48.798;44.756;2022-12-18T10:41:03;102056.56;;;6.21;74.66
75668;BME280;64266;48.798;44.756;2022-12-18T10:43:35;102076.59;;;6.14;75.34
75668;BME280;64266;48.798;44.756;2022-12-18T10:46:12;102054.50;;;6.07;75.65
75668;BME280;64266;48.798;44.756;2022-12-18T10:51:19;102047.47;;;6.16;75.29
75668;BME280;64266;48.798;44.756;2022-12-18T10:53:52;102049.00;;;6.26;76.01
75668;BME280;64266;48.798;44.756;2022-12-18T10:56:20;102040.38;;;6.16;74.91
75668;BME280;64266;48.798;44.756;2022-12-18T10:58:56;102031.53;;;6.25;75.40
75668;BME280;64266;48.798;44.756;2022-12-18T11:01:22;102027.41;;;6.23;75.37
75668;BME280;64266;48.798;44.756;2022-12-18T11:06:23;102039.03;;;6.12;75.30
75668;BME280;64266;48.798;44.756;2022-12-18T11:09:01;102038.06;;;6.13;76.63
75668;BME280;64266;48.798;44.756;2022-12-18T11:11:28;102021.53;;;6.29;76.62
75668;BME280;64266;48.798;44.756;2022-12-18T11:14:05;101998.25;;;6.16;74.89
75668;BME280;64266;48.798;44.756;2022-12-18T11:16:52;101994.59;;;6.09;75.74
75668;BME280;64266;48.798;44.756;2022-12-18T11:19:34;102025.28;;;6.18;75.97
75668;BME280;64266;48.798;44.756;2022-12-18T11:22:03;102025.63;;;6.31;75.98
75668;BME280;64266;48.798;44.756;2022-12-18T11:24:49;102033.28;;;6.42;75.67
75668;BME280;64266;48.798;44.756;2022-12-18T11:27:18;102043.19;;;6.48;74.08
75668;BME280;64266;48.798;44.756;2022-12-18T11:29:44;102039.88;;;6.46;74.98
75668;BME280;64266;48.798;44.756;2022-12-18T11:35:17;102013.00;;;6.43;74.63
75668;BME280;64266;48.798;44.756;2022-12-18T11:37:50;102033.44;;;6.41;74.41
75668;BME280;64266;48.798;44.756;2022-12-18T11:40:27;102039.97;;;6.37;75.75
75668;BME280;64266;48.798;44.756;2022-12-18T11:43:17;102040.88;;;6.45;74.49
75668;BME280;64266;48.798;44.756;2022-12-18T11:46:10;102037.47;;;6.61;75.35
75668;BME280;64266;48.798;44.756;2022-12-18T11:48:53;102007.44;;;6.46;73.68
75668;BME280;64266;48.798;44.756;2022-12-18T11:51:41;102005.97;;;6.51;73.91
75668;BME280;64266;48.798;44.756;2022-12-18T11:54:14;101986.81;;;6.33;74.98
75668;BME280;64266;48.798;44.756;2022-12-18T11:56:46;102016.34;;;6.53;74.69
75668;BME280;64266;48.798;44.756;2022-12-18T12:02:24;101986.13;;;6.31;74.17
75668;BME280;64266;48.798;44.756;2022-12-18T12:10:08;101998.53;;;6.39;75.24
75668;BME280;64266;48.798;44.756;2022-12-18T12:20:44;101994.00;;;6.15;75.74
75668;BME280;64266;48.798;44.756;2022-12-18T12:25:46;101990.09;;;6.27;75.65
75668;BME280;64266;48.798;44.756;2022-12-18T12:31:03;102019.84;;;6.28;75.91
75668;BME280;64266;48.798;44.756;2022-12-18T12:33:58;101999.09;;;6.25;76.01
75668;BME280;64266;48.798;44.756;2022-12-18T12:39:18;102009.28;;;6.12;77.69
75668;BME280;64266;48.798;44.756;2022-12-18T12:41:46;102020.78;;;6.11;76.90
75668;BME280;64266;48.798;44.756;2022-12-18T12:44:42;101986.06;;;5.81;76.25
75668;BME280;64266;48.798;44.756;2022-12-18T12:47:19;102016.81;;;6.07;75.92
75668;BME280;64266;48.798;44.756;2022-12-18T12:49:47;102006.56;;;5.95;75.98
75668;BME280;64266;48.798;44.756;2022-12-18T12:52:19;102023.72;;;6.08;76.38
75668;BME280;64266;48.798;44.756;2022-12-18T12:54:50;102032.81;;;6.13;75.87
75668;BME280;64266;48.798;44.756;2022-12-18T12:57:39;102018.59;;;6.06;76.44
75668;BME280;64266;48.798;44.756;2022-12-18T13:00:10;102023.88;;;6.06;75.84
75668;BME280;64266;48.798;44.756;2022-12-18T13:02:56;102031.84;;;6.14;76.72
75668;BME280;64266;48.798;44.756;2022-12-18T13:05:38;102023.63;;;6.17;76.64
75668;BME280;64266;48.798;44.756;2022-12-18T13:08:09;102025.28;;;6.18;76.17
75668;BME280;64266;48.798;44.756;2022-12-18T13:10:40;102031.44;;;6.09;76.07
75668;BME280;64266;48.798;44.756;2022-12-18T13:15:46;102041.41;;;6.23;77.11
75668;BME280;64266;48.798;44.756;2022-12-18T13:18:18;102023.25;;;6.12;75.61
75668;BME280;64266;48.798;44.756;2022-12-18T13:20:47;102034.34;;;6.24;75.71
75668;BME280;64266;48.798;44.756;2022-12-18T13:23:29;102052.31;;;6.28;75.23
75668;BME280;64266;48.798;44.756;2022-12-18T13:31:02;102038.88;;;6.39;75.37
75668;BME280;64266;48.798;44.756;2022-12-18T13:36:01;102022.69;;;6.34;75.91
75668;BME280;64266;48.798;44.756;2022-12-18T13:41:26;102020.56;;;6.38;75.26
75668;BME280;64266;48.798;44.756;2022-12-18T13:43:54;102011.69;;;6.39;77.14
75668;BME280;64266;48.798;44.756;2022-12-18T13:46:30;102007.72;;;6.35;75.19
75668;BME280;64266;48.798;44.756;2022-12-18T13:51:44;102008.88;;;6.32;76.18
75668;BME280;64266;48.798;44.756;2022-12-18T13:54:35;101965.63;;;6.09;75.64
75668;BME280;64266;48.798;44.756;2022-12-18T13:57:03;101983.50;;;6.31;76.64
75668;BME280;64266;48.798;44.756;2022-12-18T13:59:37;101942.94;;;6.16;75.97
75668;BME280;64266;48.798;44.756;2022-12-18T14:02:20;101996.03;;;6.37;75.08
75668;BME280;64266;48.798;44.756;2022-12-18T14:04:48;101995.06;;;6.46;76.56
75668;BME280;64266;48.798;44.756;2022-12-18T14:07:22;102006.75;;;6.36;75.01
75668;BME280;64266;48.798;44.756;2022-12-18T14:09:50;102009.19;;;6.37;75.70
75668;BME280;64266;48.798;44.756;2022-12-18T14:12:20;101981.66;;;6.24;75.42
75668;BME280;64266;48.798;44.756;2022-12-18T14:18:08;102001.16;;;6.39;76.14
75668;BME280;64266;48.798;44.756;2022-12-18T14:20:43;102008.56;;;6.43;76.32
75668;BME280;64266;48.798;44.756;2022-12-18T14:23:29;101991.13;;;6.42;75.61
75668;BME280;64266;48.798;44.756;2022-12-18T14:25:56;101991.94;;;6.43;75.12
75668;BME280;64266;48.798;44.756;2022-12-18T14:28:21;102026.81;;;6.37;76.03
75668;BME280;64266;48.798;44.756;2022-12-18T14:30:48;101991.50;;;6.14;76.45
75668;BME280;64266;48.798;44.756;2022-12-18T14:33:15;102014.28;;;6.31;75.61
75668;BME280;64266;48.798;44.756;2022-12-18T14:36:02;102016.91;;;6.31;76.73
75668;BME280;64266;48.798;44.756;2022-12-18T14:38:39;102020.75;;;6.36;76.98